sensor_id;sensor_type;location;lat;lon;timestamp;P1;durP1;ratioP1;P2;durP2;ratioP2
12222;SDS011;6174;49.058;8.524;2023-02-05T06:01:03;7.93;;;4.90;;
12222;SDS011;6174;49.058;8.524;2023-02-05T06:03:31;6.73;;;5.20;;
12222;SDS011;6174;49.058;8.524;2023-02-05T06:05:58;7.17;;;5.70;;
12222;SDS011;6174;49.058;8.524;2023-02-05T06:08:28;7.03;;;5.13;;
12222;SDS011;6174;49.058;8.524;2023-02-05T06:10:55;7.73;;;5.03;;
12222;SDS011;6174;49.058;8.524;2023-02-05T06:13:22;6.40;;;4.60;;
12222;SDS011;6174;49.058;8.524;2023-02-05T06:15:49;8.77;;;5.03;;
12222;SDS011;6174;49.058;8.524;2023-02-05T06:18:20;7.13;;;4.60;;
12222;SDS011;6174;49.058;8.524;2023-02-05T06:20:47;6.47;;;4.60;;
12222;SDS011;6174;49.058;8.524;2023-02-05T06:23:13;8.20;;;4.47;;
12222;SDS011;6174;49.058;8.524;2023-02-05T06:25:40;7.57;;;5.17;;
12222;SDS011;6174;49.058;8.524;2023-02-05T06:28:07;6.47;;;4.93;;
12222;SDS011;6174;49.058;8.524;2023-02-05T06:30:34;7.93;;;5.40;;
12222;SDS011;6174;49.058;8.524;2023-02-05T06:33:00;7.70;;;4.87;;
12222;SDS011;6174;49.058;8.524;2023-02-05T06:35:28;7.80;;;5.13;;
12222;SDS011;6174;49.058;8.524;2023-02-05T06:37:55;7.37;;;5.20;;
12222;SDS011;6174;49.058;8.524;2023-02-05T06:40:22;6.67;;;4.60;;
12222;SDS011;6174;49.058;8.524;2023-02-05T06:42:50;6.70;;;4.43;;
12222;SDS011;6174;49.058;8.524;2023-02-05T06:45:17;6.73;;;4.43;;
12222;SDS011;6174;49.058;8.524;2023-02-05T06:47:44;7.03;;;4.30;;
12222;SDS011;6174;49.058;8.524;2023-02-05T06:50:11;5.67;;;4.47;;
12222;SDS011;6174;49.058;8.524;2023-02-05T06:52:39;7.00;;;4.97;;
12222;SDS011;6174;49.058;8.524;2023-02-05T06:55:06;8.47;;;5.70;;
12222;SDS011;6174;49.058;8.524;2023-02-05T06:57:33;7.30;;;4.90;;
12222;SDS011;6174;49.058;8.524;2023-02-05T07:00:00;6.17;;;4.73;;
12222;SDS011;6174;49.058;8.524;2023-02-05T07:02:26;8.43;;;5.27;;
12222;SDS011;6174;49.058;8.524;2023-02-05T07:04:53;9.83;;;5.37;;
12222;SDS011;6174;49.058;8.524;2023-02-05T07:07:20;7.17;;;5.40;;
12222;SDS011;6174;49.058;8.524;2023-02-05T07:09:48;11.00;;;5.93;;
12222;SDS011;6174;49.058;8.524;2023-02-05T07:12:15;6.90;;;5.33;;
12222;SDS011;6174;49.058;8.524;2023-02-05T07:14:41;9.03;;;5.70;;
12222;SDS011;6174;49.058;8.524;2023-02-05T07:17:08;8.70;;;6.23;;
12222;SDS011;6174;49.058;8.524;2023-02-05T07:19:35;8.63;;;5.83;;
12222;SDS011;6174;49.058;8.524;2023-02-05T07:22:02;10.20;;;6.80;;
12222;SDS011;6174;49.058;8.524;2023-02-05T07:24:29;9.17;;;7.73;;
12222;SDS011;6174;49.058;8.524;2023-02-05T07:26:57;10.37;;;6.87;;
12222;SDS011;6174;49.058;8.524;2023-02-05T07:29:24;9.97;;;7.30;;
12222;SDS011;6174;49.058;8.524;2023-02-05T07:31:51;10.37;;;6.23;;
12222;SDS011;6174;49.058;8.524;2023-02-05T07:34:17;8.90;;;6.97;;
12222;SDS011;6174;49.058;8.524;2023-02-05T07:36:44;11.13;;;7.40;;
12222;SDS011;6174;49.058;8.524;2023-02-05T07:39:14;8.67;;;6.97;;
12222;SDS011;6174;49.058;8.524;2023-02-05T07:41:41;10.50;;;7.33;;
12222;SDS011;6174;49.058;8.524;2023-02-05T07:44:09;10.63;;;7.43;;
12222;SDS011;6174;49.058;8.524;2023-02-05T07:46:35;9.83;;;7.23;;
12222;SDS011;6174;49.058;8.524;2023-02-05T07:49:02;10.20;;;7.43;;
12222;SDS011;6174;49.058;8.524;2023-02-05T07:51:29;11.67;;;7.97;;
12222;SDS011;6174;49.058;8.524;2023-02-05T07:53:56;13.03;;;8.50;;
12222;SDS011;6174;49.058;8.524;2023-02-05T07:56:23;11.37;;;8.27;;
12222;SDS011;6174;49.058;8.524;2023-02-05T07:58:50;9.73;;;7.83;;
12222;SDS011;6174;49.058;8.524;2023-02-05T08:01:18;11.67;;;8.00;;
12222;SDS011;6174;49.058;8.524;2023-02-05T08:03:45;13.17;;;8.57;;
12222;SDS011;6174;49.058;8.524;2023-02-05T08:06:12;12.40;;;8.07;;
12222;SDS011;6174;49.058;8.524;2023-02-05T08:08:40;12.87;;;8.07;;
12222;SDS011;6174;49.058;8.524;2023-02-05T08:11:09;11.10;;;8.63;;
12222;SDS011;6174;49.058;8.524;2023-02-05T08:13:40;10.90;;;8.47;;
12222;SDS011;6174;49.058;8.524;2023-02-05T08:16:07;14.10;;;9.10;;
12222;SDS011;6174;49.058;8.524;2023-02-05T08:18:36;13.53;;;9.07;;
12222;SDS011;6174;49.058;8.524;2023-02-05T08:21:03;14.97;;;10.63;;
12222;SDS011;6174;49.058;8.524;2023-02-05T08:23:30;13.87;;;9.60;;
12222;SDS011;6174;49.058;8.524;2023-02-05T08:25:57;12.30;;;10.73;;
12222;SDS011;6174;49.058;8.524;2023-02-05T08:28:25;12.50;;;9.80;;
12222;SDS011;6174;49.058;8.524;2023-02-05T08:30:52;13.70;;;9.87;;
12222;SDS011;6174;49.058;8.524;2023-02-05T08:33:20;14.43;;;9.63;;
12222;SDS011;6174;49.058;8.524;2023-02-05T08:35:49;12.83;;;9.00;;
12222;SDS011;6174;49.058;8.524;2023-02-05T08:38:15;13.47;;;8.37;;
12222;SDS011;6174;49.058;8.524;2023-02-05T08:40:42;9.80;;;8.17;;
12222;SDS011;6174;49.058;8.524;2023-02-05T08:43:09;10.43;;;8.07;;
12222;SDS011;6174;49.058;8.524;2023-02-05T08:45:36;9.20;;;7.17;;
12222;SDS011;6174;49.058;8.524;2023-02-05T08:48:03;11.53;;;7.07;;
12222;SDS011;6174;49.058;8.524;2023-02-05T08:50:30;11.33;;;6.80;;
12222;SDS011;6174;49.058;8.524;2023-02-05T08:52:58;12.50;;;7.07;;
12222;SDS011;6174;49.058;8.524;2023-02-05T08:55:24;11.37;;;7.17;;
12222;SDS011;6174;49.058;8.524;2023-02-05T08:57:51;12.53;;;7.00;;
12222;SDS011;6174;49.058;8.524;2023-02-05T09:00:18;9.87;;;6.90;;
12222;SDS011;6174;49.058;8.524;2023-02-05T09:02:45;9.93;;;7.00;;
12222;SDS011;6174;49.058;8.524;2023-02-05T09:05:12;9.70;;;5.57;;
12222;SDS011;6174;49.058;8.524;2023-02-05T09:07:39;8.00;;;5.83;;
12222;SDS011;6174;49.058;8.524;2023-02-05T09:10:08;10.87;;;5.80;;
12222;SDS011;6174;49.058;8.524;2023-02-05T09:12:36;10.30;;;6.03;;
12222;SDS011;6174;49.058;8.524;2023-02-05T09:15:03;10.00;;;6.40;;
12222;SDS011;6174;49.058;8.524;2023-02-05T09:17:30;10.77;;;6.57;;
12222;SDS011;6174;49.058;8.524;2023-02-05T09:19:57;11.67;;;5.50;;
12222;SDS011;6174;49.058;8.524;2023-02-05T09:22:24;12.03;;;6.10;;
12222;SDS011;6174;49.058;8.524;2023-02-05T09:24:51;6.53;;;5.30;;
12222;SDS011;6174;49.058;8.524;2023-02-05T09:27:19;7.60;;;5.13;;
12222;SDS011;6174;49.058;8.524;2023-02-05T09:29:45;12.03;;;5.90;;
12222;SDS011;6174;49.058;8.524;2023-02-05T09:32:12;9.60;;;6.60;;
12222;SDS011;6174;49.058;8.524;2023-02-05T09:34:39;6.53;;;5.17;;
12222;SDS011;6174;49.058;8.524;2023-02-05T09:37:06;11.03;;;5.80;;
12222;SDS011;6174;49.058;8.524;2023-02-05T09:39:33;5.77;;;5.13;;
12222;SDS011;6174;49.058;8.524;2023-02-05T09:42:03;9.73;;;5.20;;
12222;SDS011;6174;49.058;8.524;2023-02-05T09:44:45;8.50;;;4.93;;
12222;SDS011;6174;49.058;8.524;2023-02-05T09:47:21;9.77;;;4.87;;
12222;SDS011;6174;49.058;8.524;2023-02-05T09:49:54;8.63;;;5.00;;
12222;SDS011;6174;49.058;8.524;2023-02-05T09:52:28;6.90;;;4.60;;
12222;SDS011;6174;49.058;8.524;2023-02-05T09:54:59;11.13;;;5.83;;
12222;SDS011;6174;49.058;8.524;2023-02-05T09:57:31;11.30;;;5.57;;
12222;SDS011;6174;49.058;8.524;2023-02-05T10:00:02;9.17;;;5.13;;
12222;SDS011;6174;49.058;8.524;2023-02-05T10:02:36;8.17;;;5.17;;
12222;SDS011;6174;49.058;8.524;2023-02-05T10:05:10;6.77;;;5.00;;
12222;SDS011;6174;49.058;8.524;2023-02-05T10:07:40;8.17;;;4.80;;
12222;SDS011;6174;49.058;8.524;2023-02-05T10:10:23;9.20;;;5.20;;
12222;SDS011;6174;49.058;8.524;2023-02-05T10:13:12;7.47;;;4.80;;
12222;SDS011;6174;49.058;8.524;2023-02-05T10:18:58;9.13;;;5.23;;
12222;SDS011;6174;49.058;8.524;2023-02-05T10:21:40;7.40;;;4.60;;
12222;SDS011;6174;49.058;8.524;2023-02-05T10:24:24;8.13;;;4.63;;
12222;SDS011;6174;49.058;8.524;2023-02-05T10:27:03;8.53;;;5.27;;
12222;SDS011;6174;49.058;8.524;2023-02-05T10:29:38;8.60;;;5.47;;
12222;SDS011;6174;49.058;8.524;2023-02-05T10:32:15;6.83;;;5.27;;
12222;SDS011;6174;49.058;8.524;2023-02-05T10:34:48;9.50;;;5.63;;
12222;SDS011;6174;49.058;8.524;2023-02-05T10:37:24;11.40;;;5.93;;
12222;SDS011;6174;49.058;8.524;2023-02-05T10:39:56;10.83;;;5.20;;
12222;SDS011;6174;49.058;8.524;2023-02-05T10:42:25;8.70;;;5.43;;
12222;SDS011;6174;49.058;8.524;2023-02-05T10:44:59;8.53;;;5.70;;
12222;SDS011;6174;49.058;8.524;2023-02-05T10:50:22;11.30;;;5.33;;
12222;SDS011;6174;49.058;8.524;2023-02-05T10:52:52;10.97;;;5.60;;
12222;SDS011;6174;49.058;8.524;2023-02-05T10:55:19;8.13;;;4.83;;
12222;SDS011;6174;49.058;8.524;2023-02-05T10:57:46;8.33;;;5.13;;
12222;SDS011;6174;49.058;8.524;2023-02-05T11:00:13;10.90;;;4.90;;
12222;SDS011;6174;49.058;8.524;2023-02-05T11:02:45;8.60;;;4.87;;
12222;SDS011;6174;49.058;8.524;2023-02-05T11:05:16;10.80;;;5.70;;
12222;SDS011;6174;49.058;8.524;2023-02-05T11:07:48;8.43;;;5.17;;
12222;SDS011;6174;49.058;8.524;2023-02-05T11:10:17;8.27;;;5.83;;
12222;SDS011;6174;49.058;8.524;2023-02-05T11:12:45;9.57;;;6.00;;
12222;SDS011;6174;49.058;8.524;2023-02-05T11:15:18;9.67;;;5.50;;
12222;SDS011;6174;49.058;8.524;2023-02-05T11:17:50;5.73;;;4.40;;
12222;SDS011;6174;49.058;8.524;2023-02-05T11:20:30;7.07;;;5.27;;
12222;SDS011;6174;49.058;8.524;2023-02-05T11:23:11;10.17;;;5.00;;
12222;SDS011;6174;49.058;8.524;2023-02-05T11:25:47;8.10;;;5.37;;
12222;SDS011;6174;49.058;8.524;2023-02-05T11:28:18;9.23;;;5.83;;
12222;SDS011;6174;49.058;8.524;2023-02-05T11:30:47;8.90;;;5.93;;
12222;SDS011;6174;49.058;8.524;2023-02-05T11:33:22;9.57;;;5.80;;
12222;SDS011;6174;49.058;8.524;2023-02-05T11:35:54;10.67;;;5.53;;
12222;SDS011;6174;49.058;8.524;2023-02-05T11:38:29;7.63;;;6.13;;
12222;SDS011;6174;49.058;8.524;2023-02-05T11:40:58;10.47;;;6.07;;
12222;SDS011;6174;49.058;8.524;2023-02-05T11:43:27;11.27;;;6.60;;
12222;SDS011;6174;49.058;8.524;2023-02-05T11:45:57;12.83;;;6.97;;
12222;SDS011;6174;49.058;8.524;2023-02-05T11:48:27;11.53;;;7.53;;
12222;SDS011;6174;49.058;8.524;2023-02-05T11:51:00;9.17;;;7.30;;
12222;SDS011;6174;49.058;8.524;2023-02-05T11:53:28;11.83;;;7.90;;
12222;SDS011;6174;49.058;8.524;2023-02-05T11:55:58;11.90;;;8.00;;
12222;SDS011;6174;49.058;8.524;2023-02-05T11:58:27;10.00;;;9.03;;
12222;SDS011;6174;49.058;8.524;2023-02-05T12:00:56;15.00;;;10.27;;
12222;SDS011;6174;49.058;8.524;2023-02-05T12:03:24;14.00;;;11.10;;
12222;SDS011;6174;49.058;8.524;2023-02-05T12:05:55;10.70;;;9.63;;
12222;SDS011;6174;49.058;8.524;2023-02-05T12:08:31;12.07;;;9.27;;
12222;SDS011;6174;49.058;8.524;2023-02-05T12:11:05;13.80;;;9.57;;
12222;SDS011;6174;49.058;8.524;2023-02-05T12:13:48;12.67;;;9.30;;
12222;SDS011;6174;49.058;8.524;2023-02-05T12:16:24;13.67;;;9.77;;
12222;SDS011;6174;49.058;8.524;2023-02-05T12:19:02;14.70;;;10.23;;
12222;SDS011;6174;49.058;8.524;2023-02-05T12:21:42;13.20;;;9.57;;
12222;SDS011;6174;49.058;8.524;2023-02-05T12:24:21;14.73;;;10.03;;
12222;SDS011;6174;49.058;8.524;2023-02-05T12:27:25;14.77;;;10.33;;
12222;SDS011;6174;49.058;8.524;2023-02-05T12:30:11;14.80;;;10.27;;
12222;SDS011;6174;49.058;8.524;2023-02-05T12:32:47;13.20;;;10.90;;
12222;SDS011;6174;49.058;8.524;2023-02-05T12:35:26;13.40;;;10.43;;
12222;SDS011;6174;49.058;8.524;2023-02-05T12:38:04;14.20;;;10.67;;
12222;SDS011;6174;49.058;8.524;2023-02-05T12:40:46;14.40;;;10.30;;
12222;SDS011;6174;49.058;8.524;2023-02-05T12:43:26;14.23;;;10.50;;
12222;SDS011;6174;49.058;8.524;2023-02-05T12:45:59;12.40;;;10.63;;
12222;SDS011;6174;49.058;8.524;2023-02-05T12:48:45;16.00;;;11.70;;
12222;SDS011;6174;49.058;8.524;2023-02-05T12:51:26;16.00;;;11.07;;
12222;SDS011;6174;49.058;8.524;2023-02-05T12:54:06;16.50;;;12.37;;
12222;SDS011;6174;49.058;8.524;2023-02-05T12:56:51;13.93;;;12.13;;
12222;SDS011;6174;49.058;8.524;2023-02-05T12:59:27;14.97;;;11.70;;
12222;SDS011;6174;49.058;8.524;2023-02-05T13:02:05;13.97;;;11.33;;
12222;SDS011;6174;49.058;8.524;2023-02-05T13:04:41;17.00;;;12.27;;
12222;SDS011;6174;49.058;8.524;2023-02-05T13:07:11;12.57;;;10.57;;
12222;SDS011;6174;49.058;8.524;2023-02-05T13:09:46;14.17;;;11.63;;
12222;SDS011;6174;49.058;8.524;2023-02-05T13:12:19;14.43;;;10.90;;
12222;SDS011;6174;49.058;8.524;2023-02-05T13:14:52;15.27;;;11.90;;
12222;SDS011;6174;49.058;8.524;2023-02-05T13:17:23;13.23;;;11.67;;
12222;SDS011;6174;49.058;8.524;2023-02-05T13:19:54;17.27;;;14.67;;
12222;SDS011;6174;49.058;8.524;2023-02-05T13:22:26;16.30;;;14.40;;
12222;SDS011;6174;49.058;8.524;2023-02-05T13:25:16;14.17;;;11.80;;
12222;SDS011;6174;49.058;8.524;2023-02-05T13:28:14;16.57;;;12.87;;
12222;SDS011;6174;49.058;8.524;2023-02-05T13:31:18;13.90;;;11.83;;
12222;SDS011;6174;49.058;8.524;2023-02-05T13:33:50;11.93;;;10.73;;
12222;SDS011;6174;49.058;8.524;2023-02-05T13:36:24;15.93;;;12.67;;
12222;SDS011;6174;49.058;8.524;2023-02-05T13:39:31;11.40;;;10.20;;
12222;SDS011;6174;49.058;8.524;2023-02-05T13:42:27;12.93;;;10.40;;
12222;SDS011;6174;49.058;8.524;2023-02-05T13:45:21;13.23;;;9.67;;
12222;SDS011;6174;49.058;8.524;2023-02-05T13:51:05;15.30;;;12.33;;
12222;SDS011;6174;49.058;8.524;2023-02-05T13:53:46;14.53;;;11.13;;
12222;SDS011;6174;49.058;8.524;2023-02-05T13:56:24;14.23;;;12.10;;
12222;SDS011;6174;49.058;8.524;2023-02-05T13:59:09;15.73;;;11.97;;
12222;SDS011;6174;49.058;8.524;2023-02-05T14:01:41;15.87;;;12.33;;
12222;SDS011;6174;49.058;8.524;2023-02-05T14:04:17;12.10;;;10.83;;
12222;SDS011;6174;49.058;8.524;2023-02-05T14:06:49;12.80;;;11.27;;
12222;SDS011;6174;49.058;8.524;2023-02-05T14:09:28;12.00;;;10.50;;
12222;SDS011;6174;49.058;8.524;2023-02-05T14:12:00;12.50;;;11.20;;
12222;SDS011;6174;49.058;8.524;2023-02-05T14:14:31;10.77;;;8.87;;
12222;SDS011;6174;49.058;8.524;2023-02-05T14:17:00;10.73;;;9.63;;
12222;SDS011;6174;49.058;8.524;2023-02-05T14:19:53;14.43;;;10.50;;
12222;SDS011;6174;49.058;8.524;2023-02-05T14:22:35;14.17;;;10.37;;
12222;SDS011;6174;49.058;8.524;2023-02-05T14:25:03;13.77;;;10.87;;
12222;SDS011;6174;49.058;8.524;2023-02-05T14:28:02;11.70;;;10.23;;
12222;SDS011;6174;49.058;8.524;2023-02-05T14:30:33;13.10;;;9.90;;
12222;SDS011;6174;49.058;8.524;2023-02-05T14:33:33;11.93;;;9.97;;
12222;SDS011;6174;49.058;8.524;2023-02-05T14:39:16;12.80;;;11.37;;
12222;SDS011;6174;49.058;8.524;2023-02-05T14:41:46;17.83;;;16.03;;
12222;SDS011;6174;49.058;8.524;2023-02-05T14:44:17;16.10;;;13.27;;
12222;SDS011;6174;49.058;8.524;2023-02-05T14:46:57;14.07;;;12.53;;
12222;SDS011;6174;49.058;8.524;2023-02-05T14:49:28;17.40;;;13.73;;
12222;SDS011;6174;49.058;8.524;2023-02-05T14:52:04;13.07;;;10.10;;
12222;SDS011;6174;49.058;8.524;2023-02-05T14:54:35;14.20;;;12.20;;
12222;SDS011;6174;49.058;8.524;2023-02-05T14:57:11;12.83;;;11.17;;
12222;SDS011;6174;49.058;8.524;2023-02-05T14:59:48;12.93;;;10.90;;
12222;SDS011;6174;49.058;8.524;2023-02-05T15:05:23;13.37;;;11.97;;
12222;SDS011;6174;49.058;8.524;2023-02-05T15:08:00;40.30;;;29.50;;
12222;SDS011;6174;49.058;8.524;2023-02-05T15:10:36;17.53;;;14.43;;
12222;SDS011;6174;49.058;8.524;2023-02-05T15:13:10;21.27;;;16.83;;
12222;SDS011;6174;49.058;8.524;2023-02-05T15:15:39;15.37;;;13.13;;
12222;SDS011;6174;49.058;8.524;2023-02-05T15:18:09;20.40;;;18.23;;
12222;SDS011;6174;49.058;8.524;2023-02-05T15:20:39;18.13;;;15.17;;
12222;SDS011;6174;49.058;8.524;2023-02-05T15:23:21;16.30;;;14.20;;
12222;SDS011;6174;49.058;8.524;2023-02-05T15:25:57;12.53;;;10.90;;
12222;SDS011;6174;49.058;8.524;2023-02-05T15:28:27;14.03;;;12.50;;
12222;SDS011;6174;49.058;8.524;2023-02-05T15:31:02;12.70;;;11.07;;
12222;SDS011;6174;49.058;8.524;2023-02-05T15:33:35;24.47;;;20.37;;
12222;SDS011;6174;49.058;8.524;2023-02-05T15:36:11;13.17;;;10.90;;
12222;SDS011;6174;49.058;8.524;2023-02-05T15:38:47;15.70;;;12.63;;
12222;SDS011;6174;49.058;8.524;2023-02-05T15:41:18;13.10;;;11.73;;
12222;SDS011;6174;49.058;8.524;2023-02-05T15:43:56;12.53;;;10.93;;
12222;SDS011;6174;49.058;8.524;2023-02-05T15:46:24;11.63;;;9.77;;
12222;SDS011;6174;49.058;8.524;2023-02-05T15:48:51;12.93;;;9.30;;
12222;SDS011;6174;49.058;8.524;2023-02-05T15:51:21;13.57;;;9.37;;
12222;SDS011;6174;49.058;8.524;2023-02-05T15:53:55;10.70;;;9.17;;
12222;SDS011;6174;49.058;8.524;2023-02-05T15:56:23;14.30;;;9.53;;
12222;SDS011;6174;49.058;8.524;2023-02-05T15:58:56;12.80;;;9.87;;
12222;SDS011;6174;49.058;8.524;2023-02-05T16:01:27;13.87;;;10.70;;
12222;SDS011;6174;49.058;8.524;2023-02-05T16:03:55;11.57;;;9.83;;
12222;SDS011;6174;49.058;8.524;2023-02-05T16:06:22;11.97;;;10.63;;
12222;SDS011;6174;49.058;8.524;2023-02-05T16:08:51;12.70;;;11.07;;
12222;SDS011;6174;49.058;8.524;2023-02-05T16:11:26;13.50;;;11.37;;
12222;SDS011;6174;49.058;8.524;2023-02-05T16:14:01;11.87;;;10.57;;
12222;SDS011;6174;49.058;8.524;2023-02-05T16:16:29;13.47;;;10.83;;
12222;SDS011;6174;49.058;8.524;2023-02-05T16:18:57;13.63;;;10.80;;
12222;SDS011;6174;49.058;8.524;2023-02-05T16:21:29;15.13;;;11.80;;
12222;SDS011;6174;49.058;8.524;2023-02-05T16:23:59;14.47;;;12.47;;
12222;SDS011;6174;49.058;8.524;2023-02-05T16:26:33;24.23;;;20.27;;
12222;SDS011;6174;49.058;8.524;2023-02-05T16:29:04;18.13;;;13.50;;
12222;SDS011;6174;49.058;8.524;2023-02-05T16:31:33;14.27;;;12.57;;
12222;SDS011;6174;49.058;8.524;2023-02-05T16:34:02;14.37;;;11.50;;
12222;SDS011;6174;49.058;8.524;2023-02-05T16:36:33;13.20;;;11.33;;
12222;SDS011;6174;49.058;8.524;2023-02-05T16:39:03;13.97;;;11.73;;
12222;SDS011;6174;49.058;8.524;2023-02-05T16:41:33;14.57;;;11.20;;
12222;SDS011;6174;49.058;8.524;2023-02-05T16:44:04;12.23;;;10.87;;
12222;SDS011;6174;49.058;8.524;2023-02-05T16:46:32;12.80;;;10.73;;
12222;SDS011;6174;49.058;8.524;2023-02-05T16:49:00;13.23;;;11.17;;
12222;SDS011;6174;49.058;8.524;2023-02-05T16:51:30;13.07;;;11.53;;
12222;SDS011;6174;49.058;8.524;2023-02-05T16:54:09;14.23;;;11.23;;
12222;SDS011;6174;49.058;8.524;2023-02-05T16:56:54;14.67;;;10.90;;
12222;SDS011;6174;49.058;8.524;2023-02-05T16:59:25;19.43;;;17.40;;
12222;SDS011;6174;49.058;8.524;2023-02-05T17:01:55;8.77;;;7.90;;
12222;SDS011;6174;49.058;8.524;2023-02-05T17:04:23;17.50;;;15.23;;
12222;SDS011;6174;49.058;8.524;2023-02-05T17:06:55;15.27;;;13.70;;
12222;SDS011;6174;49.058;8.524;2023-02-05T17:09:26;14.57;;;12.93;;
12222;SDS011;6174;49.058;8.524;2023-02-05T17:15:02;16.43;;;13.83;;
12222;SDS011;6174;49.058;8.524;2023-02-05T17:17:47;16.07;;;13.57;;
12222;SDS011;6174;49.058;8.524;2023-02-05T17:20:16;14.57;;;13.00;;
12222;SDS011;6174;49.058;8.524;2023-02-05T17:25:35;15.93;;;12.77;;
12222;SDS011;6174;49.058;8.524;2023-02-05T17:28:06;14.40;;;12.87;;
12222;SDS011;6174;49.058;8.524;2023-02-05T17:30:36;16.90;;;13.27;;
12222;SDS011;6174;49.058;8.524;2023-02-05T17:33:04;20.00;;;16.43;;
12222;SDS011;6174;49.058;8.524;2023-02-05T17:35:31;17.63;;;15.53;;
12222;SDS011;6174;49.058;8.524;2023-02-05T17:37:58;15.07;;;12.97;;
12222;SDS011;6174;49.058;8.524;2023-02-05T17:40:25;15.07;;;13.13;;
12222;SDS011;6174;49.058;8.524;2023-02-05T17:42:52;15.07;;;13.57;;
12222;SDS011;6174;49.058;8.524;2023-02-05T17:45:21;16.03;;;13.37;;
12222;SDS011;6174;49.058;8.524;2023-02-05T17:47:50;17.00;;;13.20;;
12222;SDS011;6174;49.058;8.524;2023-02-05T17:50:17;16.50;;;12.80;;
12222;SDS011;6174;49.058;8.524;2023-02-05T17:52:44;15.60;;;12.47;;
12222;SDS011;6174;49.058;8.524;2023-02-05T17:55:12;15.13;;;12.97;;
12222;SDS011;6174;49.058;8.524;2023-02-05T17:57:40;12.63;;;11.17;;
12222;SDS011;6174;49.058;8.524;2023-02-05T18:00:09;13.53;;;12.10;;
12222;SDS011;6174;49.058;8.524;2023-02-05T18:02:39;12.70;;;10.67;;
12222;SDS011;6174;49.058;8.524;2023-02-05T18:05:06;10.80;;;9.70;;
12222;SDS011;6174;49.058;8.524;2023-02-05T18:07:36;11.33;;;9.40;;
12222;SDS011;6174;49.058;8.524;2023-02-05T18:10:06;9.00;;;8.10;;
12222;SDS011;6174;49.058;8.524;2023-02-05T18:12:36;9.27;;;8.30;;
12222;SDS011;6174;49.058;8.524;2023-02-05T18:17:32;9.33;;;8.40;;
12222;SDS011;6174;49.058;8.524;2023-02-05T18:20:00;9.60;;;8.60;;
12222;SDS011;6174;49.058;8.524;2023-02-05T18:22:28;8.83;;;7.93;;
12222;SDS011;6174;49.058;8.524;2023-02-05T18:24:55;9.03;;;8.13;;
12222;SDS011;6174;49.058;8.524;2023-02-05T18:27:22;9.63;;;8.17;;
12222;SDS011;6174;49.058;8.524;2023-02-05T18:29:49;8.20;;;7.30;;
12222;SDS011;6174;49.058;8.524;2023-02-05T18:32:16;10.63;;;7.63;;
12222;SDS011;6174;49.058;8.524;2023-02-05T18:34:43;9.37;;;8.40;;
12222;SDS011;6174;49.058;8.524;2023-02-05T18:37:11;9.60;;;7.93;;
12222;SDS011;6174;49.058;8.524;2023-02-05T18:39:40;8.80;;;7.90;;
12222;SDS011;6174;49.058;8.524;2023-02-05T18:42:07;8.53;;;7.73;;
12222;SDS011;6174;49.058;8.524;2023-02-05T18:44:35;8.20;;;7.40;;
12222;SDS011;6174;49.058;8.524;2023-02-05T18:47:02;8.67;;;7.87;;
12222;SDS011;6174;49.058;8.524;2023-02-05T18:49:29;8.80;;;7.90;;
12222;SDS011;6174;49.058;8.524;2023-02-05T18:51:56;8.60;;;7.80;;
12222;SDS011;6174;49.058;8.524;2023-02-05T18:54:24;8.93;;;8.03;;
12222;SDS011;6174;49.058;8.524;2023-02-05T18:56:51;9.13;;;8.23;;
12222;SDS011;6174;49.058;8.524;2023-02-05T18:59:19;9.93;;;8.93;;
12222;SDS011;6174;49.058;8.524;2023-02-05T19:01:48;8.83;;;7.93;;
12222;SDS011;6174;49.058;8.524;2023-02-05T19:04:15;9.33;;;8.43;;
12222;SDS011;6174;49.058;8.524;2023-02-05T19:06:44;10.73;;;9.63;;
12222;SDS011;6174;49.058;8.524;2023-02-05T19:09:13;10.90;;;9.70;;
12222;SDS011;6174;49.058;8.524;2023-02-05T19:11:41;10.43;;;9.43;;
12222;SDS011;6174;49.058;8.524;2023-02-05T19:14:09;11.40;;;9.60;;
12222;SDS011;6174;49.058;8.524;2023-02-05T19:16:38;10.17;;;9.27;;
12222;SDS011;6174;49.058;8.524;2023-02-05T19:19:05;9.80;;;8.90;;
12222;SDS011;6174;49.058;8.524;2023-02-05T19:21:32;11.90;;;10.70;;
12222;SDS011;6174;49.058;8.524;2023-02-05T19:24:01;10.93;;;9.83;;
12222;SDS011;6174;49.058;8.524;2023-02-05T19:26:31;10.23;;;9.23;;
12222;SDS011;6174;49.058;8.524;2023-02-05T19:29:01;9.93;;;8.87;;
12222;SDS011;6174;49.058;8.524;2023-02-05T19:31:30;11.07;;;9.87;;
12222;SDS011;6174;49.058;8.524;2023-02-05T19:33:58;10.67;;;9.50;;
12222;SDS011;6174;49.058;8.524;2023-02-05T19:36:25;10.70;;;9.63;;
12222;SDS011;6174;49.058;8.524;2023-02-05T19:38:53;11.17;;;10.07;;
12222;SDS011;6174;49.058;8.524;2023-02-05T19:41:21;10.60;;;9.70;;
12222;SDS011;6174;49.058;8.524;2023-02-05T19:43:50;10.57;;;9.40;;
12222;SDS011;6174;49.058;8.524;2023-02-05T19:46:20;11.10;;;10.00;;
12222;SDS011;6174;49.058;8.524;2023-02-05T19:48:49;10.80;;;9.70;;
12222;SDS011;6174;49.058;8.524;2023-02-05T19:51:17;11.03;;;9.03;;
12222;SDS011;6174;49.058;8.524;2023-02-05T19:53:44;11.87;;;10.73;;
12222;SDS011;6174;49.058;8.524;2023-02-05T19:56:12;10.67;;;9.67;;
12222;SDS011;6174;49.058;8.524;2023-02-05T19:58:41;10.73;;;9.80;;
12222;SDS011;6174;49.058;8.524;2023-02-05T20:01:10;10.27;;;9.30;;
12222;SDS011;6174;49.058;8.524;2023-02-05T20:03:38;9.87;;;8.93;;
12222;SDS011;6174;49.058;8.524;2023-02-05T20:06:06;9.70;;;8.80;;
12222;SDS011;6174;49.058;8.524;2023-02-05T20:08:35;10.63;;;9.63;;
12222;SDS011;6174;49.058;8.524;2023-02-05T20:11:02;10.33;;;9.33;;
12222;SDS011;6174;49.058;8.524;2023-02-05T20:13:30;10.67;;;9.67;;
12222;SDS011;6174;49.058;8.524;2023-02-05T20:15:59;9.77;;;8.80;;
12222;SDS011;6174;49.058;8.524;2023-02-05T20:18:27;9.20;;;8.40;;
12222;SDS011;6174;49.058;8.524;2023-02-05T20:20:55;9.73;;;8.80;;
12222;SDS011;6174;49.058;8.524;2023-02-05T20:23:22;9.80;;;8.90;;
12222;SDS011;6174;49.058;8.524;2023-02-05T20:25:53;10.33;;;9.23;;
12222;SDS011;6174;49.058;8.524;2023-02-05T20:28:22;9.90;;;8.90;;
12222;SDS011;6174;49.058;8.524;2023-02-05T20:30:49;10.23;;;9.00;;
12222;SDS011;6174;49.058;8.524;2023-02-05T20:33:36;11.93;;;10.70;;
12222;SDS011;6174;49.058;8.524;2023-02-05T20:36:06;10.70;;;9.70;;
12222;SDS011;6174;49.058;8.524;2023-02-05T20:38:33;9.97;;;9.07;;
12222;SDS011;6174;49.058;8.524;2023-02-05T20:41:08;10.30;;;9.40;;
12222;SDS011;6174;49.058;8.524;2023-02-05T20:43:36;10.20;;;9.10;;
12222;SDS011;6174;49.058;8.524;2023-02-05T20:46:03;10.87;;;9.87;;
12222;SDS011;6174;49.058;8.524;2023-02-05T20:48:31;10.17;;;9.27;;
12222;SDS011;6174;49.058;8.524;2023-02-05T20:51:02;10.17;;;9.27;;
12222;SDS011;6174;49.058;8.524;2023-02-05T20:53:31;11.13;;;10.13;;
12222;SDS011;6174;49.058;8.524;2023-02-05T20:55:59;10.17;;;9.10;;
12222;SDS011;6174;49.058;8.524;2023-02-05T20:58:26;11.00;;;10.00;;
12222;SDS011;6174;49.058;8.524;2023-02-05T21:00:53;11.47;;;10.37;;
12222;SDS011;6174;49.058;8.524;2023-02-05T21:03:19;12.70;;;11.40;;
12222;SDS011;6174;49.058;8.524;2023-02-05T21:05:46;11.03;;;9.90;;
12222;SDS011;6174;49.058;8.524;2023-02-05T21:08:13;8.60;;;7.80;;
12222;SDS011;6174;49.058;8.524;2023-02-05T21:10:41;6.73;;;6.13;;
12222;SDS011;6174;49.058;8.524;2023-02-05T21:13:07;8.20;;;7.50;;
12222;SDS011;6174;49.058;8.524;2023-02-05T21:15:34;7.50;;;6.80;;
12222;SDS011;6174;49.058;8.524;2023-02-05T21:18:01;8.17;;;7.47;;
12222;SDS011;6174;49.058;8.524;2023-02-05T21:20:27;8.90;;;8.10;;
12222;SDS011;6174;49.058;8.524;2023-02-05T21:22:54;8.30;;;7.63;;
12222;SDS011;6174;49.058;8.524;2023-02-05T21:25:21;8.77;;;7.97;;
12222;SDS011;6174;49.058;8.524;2023-02-05T21:27:49;9.03;;;8.23;;
12222;SDS011;6174;49.058;8.524;2023-02-05T21:30:16;8.87;;;8.07;;
12222;SDS011;6174;49.058;8.524;2023-02-05T21:32:43;8.43;;;7.63;;
12222;SDS011;6174;49.058;8.524;2023-02-05T21:35:10;8.40;;;7.70;;